createdAt,value
2023-05-05T00:00:00.434Z,237.13
2023-05-05T00:01:00.418Z,237.16
2023-05-05T00:02:00.425Z,236.23
2023-05-05T00:03:00.491Z,237.54
2023-05-05T00:04:00.456Z,236.32
2023-05-05T00:05:00.397Z,237.23
2023-05-05T00:06:00.370Z,236.33
2023-05-05T00:07:00.370Z,237.43
2023-05-05T00:08:00.357Z,237.52
2023-05-05T00:09:00.389Z,236.38
2023-05-05T00:10:00.358Z,235.66
2023-05-05T00:11:00.382Z,236.28
2023-05-05T00:12:00.344Z,235.28
2023-05-05T00:13:00.347Z,236.17
2023-05-05T00:14:00.324Z,236.96
2023-05-05T00:15:00.333Z,235.97
2023-05-05T00:16:00.339Z,236.78
2023-05-05T00:17:00.391Z,236.68
2023-05-05T00:18:00.378Z,234.62
2023-05-05T00:19:00.313Z,235.23
2023-05-05T00:20:00.314Z,234.98
2023-05-05T00:21:00.296Z,235.20
2023-05-05T00:22:00.281Z,235.11
2023-05-05T00:23:00.339Z,235.32
2023-05-05T00:24:00.308Z,235.40
2023-05-05T00:25:00.247Z,236.30
2023-05-05T00:26:00.258Z,235.83
2023-05-05T00:27:00.231Z,234.39
2023-05-05T00:28:00.231Z,234.95
2023-05-05T00:29:00.285Z,235.10
2023-05-05T00:30:00.241Z,234.86
2023-05-05T00:31:00.302Z,235.80
2023-05-05T00:32:00.197Z,234.69
2023-05-05T00:33:00.262Z,233.94
2023-05-05T00:34:00.232Z,235.28
2023-05-05T00:35:00.182Z,235.14
2023-05-05T00:36:00.227Z,234.24
2023-05-05T00:37:00.214Z,234.45
2023-05-05T00:38:00.192Z,234.65
2023-05-05T00:39:00.192Z,233.65
2023-05-05T00:40:00.180Z,234.78
2023-05-05T00:41:00.270Z,233.94
2023-05-05T00:42:00.275Z,232.13
2023-05-05T00:43:00.322Z,233.36
2023-05-05T00:44:00.381Z,233.93
2023-05-05T00:45:00.438Z,232.02
2023-05-05T00:46:00.452Z,234.13
2023-05-05T00:47:00.508Z,233.53
2023-05-05T00:48:00.651Z,233.55
2023-05-05T00:49:00.594Z,232.07
2023-05-05T00:50:00.686Z,233.40
2023-05-05T00:51:00.687Z,233.57
2023-05-05T00:52:00.753Z,232.81
2023-05-05T00:53:00.788Z,232.75
2023-05-05T00:54:00.850Z,232.27
2023-05-05T00:55:00.896Z,232.06
2023-05-05T00:56:00.993Z,232.22
2023-05-05T00:57:00.994Z,233.42
2023-05-05T00:58:01.052Z,232.26
2023-05-05T00:59:01.123Z,231.72
2023-05-05T01:00:01.157Z,231.67
2023-05-05T01:01:01.174Z,231.25
2023-05-05T01:02:01.247Z,231.64
2023-05-05T01:03:01.482Z,232.23
2023-05-05T01:04:01.400Z,231.92
2023-05-05T01:05:01.412Z,232.14
2023-05-05T01:06:01.430Z,231.55
2023-05-05T01:07:01.478Z,231.38
2023-05-05T01:08:01.527Z,231.32
2023-05-05T01:09:01.614Z,230.90
2023-05-05T01:10:15.639Z,232.78
2023-05-05T01:11:02.636Z,232.82
2023-05-05T01:12:01.618Z,232.20
2023-05-05T01:13:01.623Z,232.76
2023-05-05T01:14:01.578Z,230.82
2023-05-05T01:15:01.614Z,230.99
2023-05-05T01:16:01.600Z,231.08
2023-05-05T01:17:01.544Z,231.85
2023-05-05T01:18:01.625Z,230.99
2023-05-05T01:19:01.562Z,231.81
2023-05-05T01:20:01.570Z,231.15
2023-05-05T01:21:01.576Z,231.35
2023-05-05T01:22:01.615Z,230.91
2023-05-05T01:23:01.641Z,230.64
2023-05-05T01:24:01.686Z,230.15
2023-05-05T01:25:01.842Z,230.93
2023-05-05T01:26:01.785Z,229.11
2023-05-05T01:27:01.827Z,230.47
2023-05-05T01:28:01.921Z,229.91
2023-05-05T01:29:01.976Z,229.67
2023-05-05T01:30:02.032Z,230.85
2023-05-05T01:31:02.040Z,230.41
2023-05-05T01:32:02.135Z,231.12
2023-05-05T01:33:02.179Z,229.38
2023-05-05T01:34:02.221Z,229.09
2023-05-05T01:35:02.248Z,230.09
2023-05-05T01:36:02.306Z,229.54
2023-05-05T01:37:02.375Z,229.48
2023-05-05T01:38:02.415Z,230.00
2023-05-05T01:39:02.487Z,229.86
2023-05-05T01:40:02.541Z,228.65
2023-05-05T01:41:02.572Z,228.75
2023-05-05T01:42:02.636Z,229.01
2023-05-05T01:43:02.709Z,228.79
2023-05-05T01:44:02.731Z,228.62
2023-05-05T01:45:02.803Z,228.73
2023-05-05T01:46:02.881Z,228.70
2023-05-05T01:47:02.915Z,228.93
2023-05-05T01:48:03.438Z,228.88
2023-05-05T01:49:03.013Z,228.61
2023-05-05T01:50:03.084Z,228.66
2023-05-05T01:51:03.186Z,228.07
2023-05-05T01:52:03.216Z,227.86
2023-05-05T01:53:03.328Z,228.17
2023-05-05T01:54:03.315Z,227.80
2023-05-05T01:55:03.350Z,227.88
2023-05-05T01:56:03.380Z,228.34
2023-05-05T01:57:03.446Z,228.82
2023-05-05T01:58:03.515Z,227.50
2023-05-05T01:59:03.545Z,226.70
2023-05-05T02:00:03.632Z,228.20
2023-05-05T02:01:03.750Z,228.27
2023-05-05T02:02:03.777Z,226.37
2023-05-05T02:03:03.781Z,228.11
2023-05-05T02:04:03.820Z,227.24
2023-05-05T02:05:03.870Z,227.00
2023-05-05T02:06:03.901Z,227.42
2023-05-05T02:07:03.931Z,227.02
2023-05-05T02:08:04.393Z,226.97
2023-05-05T02:09:04.053Z,226.09
2023-05-05T02:10:04.129Z,226.31
2023-05-05T02:11:04.129Z,226.32
2023-05-05T02:12:04.202Z,226.49
2023-05-05T02:13:04.392Z,225.75
2023-05-05T02:14:04.347Z,226.29
2023-05-05T02:15:04.368Z,225.98
2023-05-05T02:16:04.425Z,225.84
2023-05-05T02:17:04.470Z,224.99
2023-05-05T02:18:04.552Z,226.33
2023-05-05T02:19:04.544Z,225.34
2023-05-05T02:20:04.647Z,226.11
2023-05-05T02:21:04.667Z,224.46
2023-05-05T02:22:04.705Z,225.10
2023-05-05T02:23:04.771Z,224.52
2023-05-05T02:24:04.808Z,224.85
2023-05-05T02:25:04.891Z,225.47
2023-05-05T02:26:04.944Z,225.03
2023-05-05T02:27:04.980Z,226.31
2023-05-05T02:28:05.036Z,225.03
2023-05-05T02:29:05.049Z,224.99
2023-05-05T02:30:05.236Z,225.51
2023-05-05T02:31:05.202Z,224.54
2023-05-05T02:32:05.212Z,224.02
2023-05-05T02:33:05.465Z,224.55
2023-05-05T02:34:05.337Z,225.12
2023-05-05T02:35:05.370Z,224.43
2023-05-05T02:36:05.411Z,224.42
2023-05-05T02:37:05.484Z,224.59
2023-05-05T02:38:05.546Z,222.95
2023-05-05T02:39:05.563Z,223.78
2023-05-05T02:40:05.718Z,224.38
2023-05-05T02:41:05.686Z,224.00
2023-05-05T02:42:05.695Z,224.16
2023-05-05T02:43:05.803Z,223.64
2023-05-05T02:44:05.812Z,224.43
2023-05-05T02:45:05.859Z,224.90
2023-05-05T02:46:05.953Z,222.96
2023-05-05T02:47:06.894Z,224.93
2023-05-05T02:48:06.458Z,224.34
2023-05-05T02:49:06.059Z,223.86
2023-05-05T02:50:06.245Z,224.68
2023-05-05T02:51:06.178Z,224.50
2023-05-05T02:52:06.212Z,224.96
2023-05-05T02:53:06.234Z,223.91
2023-05-05T02:54:06.331Z,224.33
2023-05-05T02:55:06.414Z,223.59
2023-05-05T02:56:06.420Z,224.85
2023-05-05T02:57:06.480Z,224.90
2023-05-05T02:58:06.515Z,224.99
2023-05-05T02:59:06.594Z,223.98
2023-05-05T03:00:06.873Z,224.74
2023-05-05T03:01:06.743Z,224.48
2023-05-05T03:02:06.726Z,224.83
2023-05-05T03:03:06.895Z,224.66
2023-05-05T03:04:06.859Z,224.48
2023-05-05T03:05:06.869Z,223.67
2023-05-05T03:06:06.934Z,222.86
2023-05-05T03:07:06.971Z,223.42
2023-05-05T03:08:07.035Z,224.44
2023-05-05T03:09:07.078Z,223.56
2023-05-05T03:10:07.425Z,223.99
2023-05-05T03:11:07.218Z,223.96
2023-05-05T03:12:07.276Z,223.66
2023-05-05T03:13:07.437Z,224.46
2023-05-05T03:14:07.438Z,224.69
2023-05-05T03:15:07.475Z,223.49
2023-05-05T03:16:07.526Z,222.39
2023-05-05T03:17:07.560Z,222.72
2023-05-05T03:18:07.667Z,224.03
2023-05-05T03:19:07.685Z,223.99
2023-05-05T03:20:07.954Z,223.45
2023-05-05T03:21:07.820Z,222.65
2023-05-05T03:22:07.910Z,223.04
2023-05-05T03:23:07.955Z,222.88
2023-05-05T03:24:08.016Z,223.37
2023-05-05T03:25:08.045Z,222.42
2023-05-05T03:26:08.138Z,222.36
2023-05-05T03:27:08.190Z,222.80
2023-05-05T03:28:08.294Z,223.15
2023-05-05T03:29:08.306Z,222.43
2023-05-05T03:30:08.608Z,223.12
2023-05-05T03:31:08.478Z,221.98
2023-05-05T03:32:08.571Z,221.59
2023-05-05T03:33:08.637Z,221.73
2023-05-05T03:34:08.650Z,223.19
2023-05-05T03:35:08.693Z,221.86
2023-05-05T03:36:08.767Z,222.17
2023-05-05T03:37:08.826Z,221.07
2023-05-05T03:38:08.867Z,222.09
2023-05-05T03:39:08.941Z,221.24
2023-05-05T03:40:09.206Z,220.83
2023-05-05T03:41:09.044Z,220.67
2023-05-05T03:42:09.097Z,221.97
2023-05-05T03:43:09.184Z,221.32
2023-05-05T03:44:09.231Z,220.93
2023-05-05T03:45:09.365Z,221.80
2023-05-05T03:46:09.382Z,222.01
2023-05-05T03:47:09.465Z,221.45
2023-05-05T03:48:09.640Z,221.97
2023-05-05T03:49:09.546Z,220.49
2023-05-05T03:50:09.736Z,219.54
2023-05-05T03:51:09.672Z,220.90
2023-05-05T03:52:09.699Z,220.76
2023-05-05T03:53:09.943Z,221.55
2023-05-05T03:54:09.857Z,219.51
2023-05-05T03:55:09.898Z,220.81
2023-05-05T03:56:10.035Z,219.93
2023-05-05T03:57:10.059Z,219.52
2023-05-05T03:58:10.047Z,220.48
2023-05-05T03:59:10.094Z,219.95
2023-05-05T04:00:10.173Z,219.52
2023-05-05T04:01:10.225Z,219.25
2023-05-05T04:02:10.281Z,219.34
2023-05-05T04:03:10.460Z,219.10
2023-05-05T04:04:10.391Z,219.33
2023-05-05T04:05:10.402Z,220.04
2023-05-05T04:06:10.473Z,219.46
2023-05-05T04:07:10.477Z,217.75
2023-05-05T04:08:10.943Z,220.69
2023-05-05T04:09:10.575Z,220.95
2023-05-05T04:10:10.696Z,218.13
2023-05-05T04:11:10.657Z,219.20
2023-05-05T04:12:10.732Z,218.86
2023-05-05T04:13:10.954Z,218.62
2023-05-05T04:14:10.855Z,219.01
2023-05-05T04:15:10.897Z,218.73
2023-05-05T04:16:11.091Z,218.63
2023-05-05T04:17:11.045Z,218.14
2023-05-05T04:18:11.141Z,217.54
2023-05-05T04:19:11.172Z,217.81
2023-05-05T04:20:11.288Z,218.07
2023-05-05T04:21:11.291Z,218.12
2023-05-05T04:22:11.341Z,218.75
2023-05-05T04:23:11.390Z,218.00
2023-05-05T04:24:11.395Z,217.40
2023-05-05T04:25:11.435Z,217.50
2023-05-05T04:26:11.523Z,218.47
2023-05-05T04:27:11.528Z,217.99
2023-05-05T04:28:11.639Z,217.09
2023-05-05T04:29:11.640Z,218.24
2023-05-05T04:30:11.771Z,217.83
2023-05-05T04:31:11.954Z,217.98
2023-05-05T04:32:11.974Z,218.11
2023-05-05T04:33:11.969Z,216.51
2023-05-05T04:34:12.048Z,217.12
2023-05-05T04:35:12.116Z,217.52
2023-05-05T04:36:12.150Z,216.84
2023-05-05T04:37:12.233Z,218.31
2023-05-05T04:38:12.278Z,216.66
2023-05-05T04:39:12.337Z,217.29
2023-05-05T04:40:12.363Z,216.33
2023-05-05T04:41:12.415Z,216.21
2023-05-05T04:42:12.483Z,217.12
2023-05-05T04:43:12.552Z,216.86
2023-05-05T04:44:12.555Z,215.91
2023-05-05T04:45:12.566Z,216.69
2023-05-05T04:46:12.628Z,217.49
2023-05-05T04:47:14.569Z,216.52
2023-05-05T04:48:12.720Z,216.29
2023-05-05T04:49:12.738Z,216.09
2023-05-05T04:50:12.767Z,215.57
2023-05-05T04:51:12.818Z,215.67
2023-05-05T04:52:12.866Z,215.57
2023-05-05T04:53:12.921Z,214.79
2023-05-05T04:54:12.958Z,214.24
2023-05-05T04:55:12.940Z,211.43
2023-05-05T04:56:12.995Z,210.87
2023-05-05T04:57:13.009Z,210.68
2023-05-05T04:58:13.039Z,209.01
2023-05-05T04:59:13.024Z,206.47
2023-05-05T05:00:13.069Z,204.90
2023-05-05T05:01:13.002Z,204.15
2023-05-05T05:02:13.139Z,202.45
2023-05-05T05:03:13.120Z,201.23
2023-05-05T05:04:13.102Z,201.26
2023-05-05T05:05:13.119Z,200.06
2023-05-05T05:06:13.103Z,199.65
2023-05-05T05:07:13.103Z,198.30
2023-05-05T05:08:13.109Z,196.29
2023-05-05T05:09:13.123Z,196.55
2023-05-05T05:10:13.052Z,194.86
2023-05-05T05:11:13.092Z,195.12
2023-05-05T05:12:13.102Z,194.05
2023-05-05T05:13:13.276Z,193.79
2023-05-05T05:14:13.118Z,192.64
2023-05-05T05:15:13.090Z,192.77
2023-05-05T05:16:13.128Z,191.06
2023-05-05T05:17:13.120Z,191.06
2023-05-05T05:18:13.150Z,190.18
2023-05-05T05:19:13.119Z,190.44
2023-05-05T05:20:13.107Z,189.05
2023-05-05T05:21:13.132Z,190.79
2023-05-05T05:22:13.145Z,189.74
2023-05-05T05:23:13.198Z,188.43
2023-05-05T05:24:13.165Z,188.08
2023-05-05T05:25:13.167Z,188.25
2023-05-05T05:26:13.170Z,186.94
2023-05-05T05:27:13.190Z,187.01
2023-05-05T05:28:13.196Z,184.90
2023-05-05T05:29:13.187Z,185.60
2023-05-05T05:30:13.205Z,185.43
2023-05-05T05:31:13.183Z,185.26
2023-05-05T05:32:13.267Z,183.78
2023-05-05T05:33:13.190Z,183.73
2023-05-05T05:34:13.202Z,183.99
2023-05-05T05:35:13.226Z,185.76
2023-05-05T05:36:13.172Z,192.03
2023-05-05T05:37:13.229Z,190.46
2023-05-05T05:38:13.490Z,189.15
2023-05-05T05:39:13.246Z,186.72
2023-05-05T05:40:13.295Z,186.36
2023-05-05T05:41:13.362Z,188.30
2023-05-05T05:42:13.374Z,188.21
2023-05-05T05:43:13.472Z,186.93
2023-05-05T05:44:13.495Z,187.95
2023-05-05T05:45:13.547Z,187.33
2023-05-05T05:46:13.596Z,187.91
2023-05-05T05:47:13.660Z,200.45
2023-05-05T05:48:13.745Z,212.24
2023-05-05T05:49:13.798Z,204.22
2023-05-05T05:50:13.855Z,198.38
2023-05-05T05:51:13.895Z,203.29
2023-05-05T05:52:13.983Z,205.27
2023-05-05T05:53:14.054Z,205.28
2023-05-05T05:54:14.077Z,209.96
2023-05-05T05:55:14.108Z,207.49
2023-05-05T05:56:14.167Z,206.72
2023-05-05T05:57:14.229Z,209.45
2023-05-05T05:58:14.478Z,208.15
2023-05-05T05:59:14.326Z,207.90
2023-05-05T06:00:14.374Z,207.32
2023-05-05T06:01:14.431Z,206.82
2023-05-05T06:02:14.460Z,207.94
2023-05-05T06:03:14.836Z,210.72
2023-05-05T06:04:14.519Z,208.83
2023-05-05T06:05:14.554Z,209.63
2023-05-05T06:06:14.559Z,209.54
2023-05-05T06:07:14.582Z,209.51
2023-05-05T06:08:14.634Z,204.28
2023-05-05T06:09:14.628Z,205.99
2023-05-05T06:10:26.535Z,209.84
2023-05-05T06:11:15.640Z,209.91
2023-05-05T06:12:14.616Z,206.01
2023-05-05T06:13:14.703Z,197.02
2023-05-05T06:14:14.610Z,188.32
2023-05-05T06:15:14.608Z,187.22
2023-05-05T06:16:14.617Z,179.13
2023-05-05T06:17:14.575Z,183.32
2023-05-05T06:18:14.653Z,186.98
2023-05-05T06:19:14.996Z,188.33
2023-05-05T06:20:14.566Z,187.19
2023-05-05T06:21:14.602Z,179.83
2023-05-05T06:22:14.561Z,163.17
2023-05-05T06:23:14.572Z,154.15
2023-05-05T06:24:14.570Z,143.46
2023-05-05T06:25:14.563Z,149.14
2023-05-05T06:26:14.545Z,148.92
2023-05-05T06:27:14.657Z,140.39
2023-05-05T06:28:14.655Z,148.45
2023-05-05T06:29:15.019Z,139.22
2023-05-05T06:30:14.808Z,129.23
2023-05-05T06:31:14.880Z,139.97
2023-05-05T06:32:14.866Z,121.23
2023-05-05T06:33:14.966Z,119.62
2023-05-05T06:34:23.010Z,116.36
2023-05-05T06:35:15.002Z,116.86
2023-05-05T06:36:15.042Z,118.03
2023-05-05T06:37:15.024Z,120.52
2023-05-05T06:38:14.997Z,123.59
2023-05-05T06:39:16.038Z,133.00
2023-05-05T06:40:15.027Z,133.74
2023-05-05T06:41:15.004Z,141.58
2023-05-05T06:42:15.069Z,140.39
2023-05-05T06:43:15.084Z,147.74
2023-05-05T06:44:15.139Z,144.57
2023-05-05T06:45:15.165Z,151.98
2023-05-05T06:46:15.268Z,147.30
2023-05-05T06:47:15.257Z,154.68
2023-05-05T06:48:15.295Z,132.02
2023-05-05T06:49:15.348Z,147.33
2023-05-05T06:50:15.387Z,133.92
2023-05-05T06:51:15.542Z,138.52
2023-05-05T06:52:15.429Z,122.70
2023-05-05T06:53:15.507Z,136.70
2023-05-05T06:54:15.521Z,120.61
2023-05-05T06:55:15.592Z,145.27
2023-05-05T06:56:15.671Z,149.10
2023-05-05T06:57:15.710Z,153.20
2023-05-05T06:58:15.819Z,161.73
2023-05-05T06:59:15.852Z,162.29
2023-05-05T07:00:15.804Z,164.91
2023-05-05T07:01:15.879Z,154.70
2023-05-05T07:02:15.847Z,160.60
2023-05-05T07:03:15.989Z,164.03
2023-05-05T07:04:15.989Z,163.55
2023-05-05T07:05:15.935Z,161.89
2023-05-05T07:06:15.932Z,150.78
2023-05-05T07:07:15.946Z,154.73
2023-05-05T07:08:15.907Z,154.35
2023-05-05T07:09:17.087Z,151.49
2023-05-05T07:10:15.942Z,148.32
2023-05-05T07:11:15.914Z,148.63
2023-05-05T07:12:15.922Z,143.20
2023-05-05T07:13:15.905Z,144.16
2023-05-05T07:14:16.062Z,141.40
2023-05-05T07:15:26.730Z,134.79
2023-05-05T07:16:17.039Z,134.87
2023-05-05T07:17:15.917Z,134.98
2023-05-05T07:18:15.932Z,132.81
2023-05-05T07:19:15.911Z,122.36
2023-05-05T07:20:15.889Z,130.64
2023-05-05T07:21:15.897Z,136.64
2023-05-05T07:22:15.896Z,121.56
2023-05-05T07:23:15.903Z,131.06
2023-05-05T07:24:15.881Z,135.45
2023-05-05T07:25:15.895Z,138.73
2023-05-05T07:26:15.862Z,136.31
2023-05-05T07:27:15.911Z,133.28
2023-05-05T07:28:15.937Z,136.08
2023-05-05T07:29:16.013Z,131.90
2023-05-05T07:30:18.492Z,126.00
2023-05-05T07:31:16.074Z,127.80
2023-05-05T07:32:16.087Z,129.52
2023-05-05T07:33:16.522Z,129.72
2023-05-05T07:34:16.053Z,131.11
2023-05-05T07:35:16.019Z,129.16
2023-05-05T07:36:16.022Z,134.00
2023-05-05T07:37:15.996Z,129.49
2023-05-05T07:38:16.016Z,127.35
2023-05-05T07:39:23.669Z,128.53
2023-05-05T07:40:16.972Z,128.93
2023-05-05T07:41:16.003Z,129.15
2023-05-05T07:42:15.963Z,128.76
2023-05-05T07:43:15.933Z,128.72
2023-05-05T07:44:15.981Z,128.98
2023-05-05T07:45:15.962Z,127.84
2023-05-05T07:46:15.971Z,126.71
2023-05-05T07:47:15.937Z,116.78
2023-05-05T07:48:15.931Z,126.69
2023-05-05T07:49:15.973Z,125.09
2023-05-05T07:50:15.963Z,131.70
2023-05-05T07:51:15.900Z,93.28
2023-05-05T07:52:15.899Z,85.85
2023-05-05T07:53:15.915Z,110.96
2023-05-05T07:54:15.873Z,107.25
2023-05-05T07:55:15.907Z,88.13
2023-05-05T07:56:15.839Z,108.97
2023-05-05T07:57:15.873Z,98.76
2023-05-05T07:58:15.850Z,113.26
2023-05-05T07:59:15.885Z,98.57
2023-05-05T08:00:15.865Z,98.12
2023-05-05T08:01:15.845Z,84.60
2023-05-05T08:02:15.939Z,83.25
2023-05-05T08:03:15.884Z,60.25
2023-05-05T08:04:15.948Z,73.28
2023-05-05T08:05:15.880Z,72.25
2023-05-05T08:06:15.932Z,75.53
2023-05-05T08:07:15.955Z,52.35
2023-05-05T08:08:16.049Z,34.21
2023-05-05T08:09:16.101Z,53.03
2023-05-05T08:10:16.166Z,26.26
2023-05-05T08:11:16.195Z,54.94
2023-05-05T08:12:16.267Z,47.79
2023-05-05T08:13:16.470Z,63.54
2023-05-05T08:14:16.569Z,48.40
2023-05-05T08:15:16.556Z,50.21
2023-05-05T08:16:16.585Z,25.84
2023-05-05T08:17:16.631Z,62.57
2023-05-05T08:18:16.756Z,43.58
2023-05-05T08:19:28.210Z,59.11
2023-05-05T08:20:17.710Z,43.73
2023-05-05T08:21:16.703Z,35.30
2023-05-05T08:22:16.650Z,50.89
2023-05-05T08:23:16.699Z,42.83
2023-05-05T08:24:17.089Z,45.31
2023-05-05T08:25:16.632Z,46.00
2023-05-05T08:26:16.637Z,28.83
2023-05-05T08:27:16.651Z,31.91
2023-05-05T08:28:16.662Z,55.93
2023-05-05T08:29:17.068Z,53.72
2023-05-05T08:30:16.768Z,42.67
2023-05-05T08:31:16.878Z,51.83
2023-05-05T08:32:16.877Z,30.06
2023-05-05T08:33:16.982Z,33.27
2023-05-05T08:34:17.531Z,37.09
2023-05-05T08:35:17.064Z,41.98
2023-05-05T08:36:17.016Z,21.20
2023-05-05T08:37:17.095Z,55.63
2023-05-05T08:38:17.052Z,45.57
2023-05-05T08:39:17.245Z,44.59
2023-05-05T08:40:17.174Z,38.76
2023-05-05T08:41:17.233Z,52.40
2023-05-05T08:42:29.066Z,49.22
2023-05-05T08:43:18.265Z,49.29
2023-05-05T08:44:17.334Z,50.31
2023-05-05T08:45:17.216Z,49.62
2023-05-05T08:46:17.248Z,49.21
2023-05-05T08:47:17.182Z,48.01
2023-05-05T08:48:17.233Z,25.66
2023-05-05T08:49:17.216Z,55.17
2023-05-05T08:50:17.303Z,63.28
2023-05-05T08:51:17.204Z,62.86
2023-05-05T08:52:17.238Z,69.70
2023-05-05T08:53:17.212Z,69.00
2023-05-05T08:54:17.574Z,70.63
2023-05-05T08:55:17.298Z,71.08
2023-05-05T08:56:17.445Z,50.93
2023-05-05T08:57:17.368Z,58.31
2023-05-05T08:58:18.084Z,36.84
2023-05-05T08:59:17.591Z,57.13
2023-05-05T09:00:17.586Z,73.48
2023-05-05T09:01:17.770Z,52.69
2023-05-05T09:02:17.815Z,55.29
2023-05-05T09:03:17.789Z,69.53
2023-05-05T09:04:17.803Z,90.25
2023-05-05T09:05:17.861Z,99.08
2023-05-05T09:06:18.004Z,95.88
2023-05-05T09:07:24.952Z,115.85
2023-05-05T09:08:17.868Z,108.65
2023-05-05T09:09:17.886Z,110.51
2023-05-05T09:10:17.833Z,112.63
2023-05-05T09:11:17.889Z,118.16
2023-05-05T09:12:17.871Z,119.25
2023-05-05T09:13:18.017Z,127.56
2023-05-05T09:14:17.867Z,133.66
2023-05-05T09:15:17.878Z,122.87
2023-05-05T09:16:17.875Z,130.80
2023-05-05T09:17:17.835Z,123.09
2023-05-05T09:18:17.849Z,123.16
2023-05-05T09:19:18.100Z,138.13
2023-05-05T09:20:17.826Z,132.36
2023-05-05T09:21:17.809Z,144.47
2023-05-05T09:22:17.956Z,146.96
2023-05-05T09:23:17.769Z,145.29
2023-05-05T09:24:17.785Z,150.23
2023-05-05T09:25:17.885Z,153.41
2023-05-05T09:26:17.737Z,148.47
2023-05-05T09:27:17.738Z,146.81
2023-05-05T09:28:17.767Z,147.48
2023-05-05T09:29:17.758Z,146.06
2023-05-05T09:30:17.761Z,147.75
2023-05-05T09:31:17.773Z,156.35
2023-05-05T09:32:17.702Z,157.56
2023-05-05T09:33:17.684Z,162.39
2023-05-05T09:34:17.690Z,167.65
2023-05-05T09:35:17.708Z,151.86
2023-05-05T09:36:17.663Z,151.72
2023-05-05T09:37:17.678Z,166.55
2023-05-05T09:38:17.730Z,164.96
2023-05-05T09:39:18.094Z,166.76
2023-05-05T09:40:17.657Z,162.31
2023-05-05T09:41:17.632Z,166.58
2023-05-05T09:42:17.640Z,172.81
2023-05-05T09:43:17.654Z,169.67
2023-05-05T09:44:17.611Z,173.12
2023-05-05T09:45:17.667Z,180.60
2023-05-05T09:46:17.626Z,170.06
2023-05-05T09:47:28.952Z,65.55
2023-05-05T09:48:18.622Z,66.93
2023-05-05T09:49:17.590Z,75.57
2023-05-05T09:50:17.607Z,98.18
2023-05-05T09:51:17.622Z,135.95
2023-05-05T09:52:17.640Z,191.40
2023-05-05T09:53:17.586Z,218.63
2023-05-05T09:54:17.689Z,228.35
2023-05-05T09:55:17.564Z,242.86
2023-05-05T09:56:17.560Z,250.00
2023-05-05T09:57:17.536Z,250.22
2023-05-05T09:58:17.606Z,250.00
2023-05-05T09:59:17.553Z,250.00
2023-05-05T10:00:17.574Z,250.00
2023-05-05T10:01:17.545Z,248.30
2023-05-05T10:02:17.584Z,246.84
2023-05-05T10:03:17.613Z,245.88
2023-05-05T10:04:17.658Z,249.02
2023-05-05T10:05:18.166Z,245.83
2023-05-05T10:06:17.811Z,249.32
2023-05-05T10:07:17.835Z,249.83
2023-05-05T10:08:17.936Z,247.01
2023-05-05T10:09:17.969Z,247.13
2023-05-05T10:10:18.266Z,248.84
2023-05-05T10:11:18.079Z,247.17
2023-05-05T10:12:18.167Z,249.46
2023-05-05T10:13:18.392Z,250.00
2023-05-05T10:14:19.093Z,249.13
2023-05-05T10:15:18.599Z,248.93
2023-05-05T10:16:18.412Z,246.86
2023-05-05T10:17:18.424Z,245.11
2023-05-05T10:18:18.559Z,247.60
2023-05-05T10:19:18.504Z,242.29
2023-05-05T10:20:18.599Z,241.89
2023-05-05T10:21:18.628Z,245.03
2023-05-05T10:22:18.652Z,242.37
2023-05-05T10:23:18.770Z,240.19
2023-05-05T10:24:18.770Z,245.11
2023-05-05T10:25:19.130Z,247.38
2023-05-05T10:26:19.080Z,248.34
2023-05-05T10:27:19.024Z,248.70
2023-05-05T10:28:19.050Z,239.86
2023-05-05T10:29:19.080Z,240.55
2023-05-05T10:30:19.604Z,242.51
2023-05-05T10:31:25.783Z,244.95
2023-05-05T10:32:46.687Z,245.09
2023-05-05T10:33:31.642Z,245.17
2023-05-05T10:34:20.280Z,245.21
2023-05-05T10:35:19.176Z,246.08
2023-05-05T10:36:19.168Z,244.21
2023-05-05T10:37:19.197Z,243.39
2023-05-05T10:38:19.166Z,238.96
2023-05-05T10:39:19.187Z,238.89
2023-05-05T10:40:19.622Z,233.98
2023-05-05T10:41:19.156Z,223.87
2023-05-05T10:42:19.200Z,230.57
2023-05-05T10:43:19.123Z,225.29
2023-05-05T10:44:19.126Z,220.60
2023-05-05T10:45:19.133Z,212.91
2023-05-05T10:46:19.127Z,211.31
2023-05-05T10:47:19.097Z,217.09
2023-05-05T10:48:19.170Z,212.51
2023-05-05T10:49:19.064Z,210.71
2023-05-05T10:50:19.133Z,207.90
2023-05-05T10:51:31.026Z,207.46
2023-05-05T10:52:20.091Z,207.52
2023-05-05T10:53:19.064Z,204.00
2023-05-05T10:54:19.073Z,192.49
2023-05-05T10:55:19.106Z,195.51
2023-05-05T10:56:19.047Z,189.13
2023-05-05T10:57:19.068Z,182.47
2023-05-05T10:58:19.088Z,175.95
2023-05-05T10:59:19.029Z,176.80
2023-05-05T11:00:19.099Z,166.73
2023-05-05T11:01:19.029Z,161.97
2023-05-05T11:02:19.021Z,158.82
2023-05-05T11:03:19.099Z,152.07
2023-05-05T11:04:19.020Z,154.47
2023-05-05T11:05:19.138Z,145.92
2023-05-05T11:06:18.990Z,141.97
2023-05-05T11:07:18.985Z,140.04
2023-05-05T11:08:18.961Z,136.24
2023-05-05T11:09:18.932Z,133.59
2023-05-05T11:10:19.166Z,121.39
2023-05-05T11:11:18.923Z,111.74
2023-05-05T11:12:18.946Z,113.68
2023-05-05T11:13:19.169Z,115.11
2023-05-05T11:14:19.039Z,113.18
2023-05-05T11:15:19.114Z,106.60
2023-05-05T11:16:19.032Z,100.19
2023-05-05T11:17:19.041Z,106.88
2023-05-05T11:18:19.068Z,95.71
2023-05-05T11:19:19.109Z,94.69
2023-05-05T11:20:19.649Z,92.85
2023-05-05T11:21:19.208Z,91.29
2023-05-05T11:22:19.195Z,89.26
2023-05-05T11:23:19.212Z,78.22
2023-05-05T11:24:19.250Z,86.19
2023-05-05T11:25:19.668Z,74.84
2023-05-05T11:26:19.329Z,73.14
2023-05-05T11:27:19.315Z,63.16
2023-05-05T11:28:19.431Z,59.24
2023-05-05T11:29:19.375Z,65.32
2023-05-05T11:30:19.502Z,60.02
2023-05-05T11:31:19.816Z,63.26
2023-05-05T11:32:19.582Z,60.38
2023-05-05T11:33:19.558Z,53.57
2023-05-05T11:34:19.576Z,52.06
2023-05-05T11:35:19.687Z,51.25
2023-05-05T11:36:19.643Z,48.17
2023-05-05T11:37:19.666Z,57.07
2023-05-05T11:38:19.807Z,59.79
2023-05-05T11:39:19.781Z,55.39
2023-05-05T11:40:19.783Z,61.91
2023-05-05T11:41:19.829Z,81.71
2023-05-05T11:42:19.832Z,73.76
2023-05-05T11:43:19.857Z,83.24
2023-05-05T11:44:19.860Z,96.06
2023-05-05T11:45:20.159Z,107.85
2023-05-05T11:46:20.065Z,120.28
2023-05-05T11:47:19.953Z,114.28
2023-05-05T11:48:19.998Z,115.24
2023-05-05T11:49:19.957Z,109.63
2023-05-05T11:50:19.951Z,115.25
2023-05-05T11:51:19.966Z,122.28
2023-05-05T11:52:19.967Z,127.14
2023-05-05T11:53:20.006Z,131.14
2023-05-05T11:54:20.029Z,129.24
2023-05-05T11:55:20.046Z,136.03
2023-05-05T11:56:20.095Z,136.10
2023-05-05T11:57:20.149Z,137.02
2023-05-05T11:58:20.144Z,142.43
2023-05-05T11:59:20.210Z,147.08
2023-05-05T12:00:20.220Z,145.30
2023-05-05T12:01:20.235Z,147.93
2023-05-05T12:02:20.409Z,155.92
2023-05-05T12:03:20.387Z,157.21
2023-05-05T12:04:20.310Z,158.35
2023-05-05T12:05:20.658Z,146.19
2023-05-05T12:06:20.316Z,151.09
2023-05-05T12:07:20.376Z,151.16
2023-05-05T12:08:20.412Z,155.07
2023-05-05T12:09:20.498Z,155.70
2023-05-05T12:10:20.691Z,148.40
2023-05-05T12:11:20.568Z,150.53
2023-05-05T12:12:20.623Z,146.70
2023-05-05T12:13:20.741Z,150.27
2023-05-05T12:14:20.733Z,152.31
2023-05-05T12:15:21.149Z,152.24
2023-05-05T12:16:20.885Z,154.01
2023-05-05T12:17:20.938Z,152.47
2023-05-05T12:18:21.160Z,152.46
2023-05-05T12:19:21.131Z,148.10
2023-05-05T12:20:21.086Z,152.48
2023-05-05T12:21:21.104Z,149.78
2023-05-05T12:22:21.206Z,152.31
2023-05-05T12:23:21.249Z,147.15
2023-05-05T12:24:21.338Z,147.39
2023-05-05T12:25:21.357Z,175.37
2023-05-05T12:26:21.453Z,158.75
2023-05-05T12:27:21.461Z,147.48
2023-05-05T12:28:21.480Z,150.81
2023-05-05T12:29:21.577Z,143.36
2023-05-05T12:30:21.711Z,144.76
2023-05-05T12:31:21.622Z,156.73